createdAt,value
2023-03-23T15:59:58.894Z,17.30
2023-03-23T16:03:04.632Z,17.28
2023-03-23T16:06:10.463Z,17.27
2023-03-23T16:09:15.393Z,17.25
2023-03-23T16:12:18.453Z,17.23
2023-03-23T16:15:21.586Z,17.22
2023-03-23T16:18:24.726Z,17.19
2023-03-23T16:21:27.828Z,17.19
2023-03-23T16:24:30.860Z,17.16
2023-03-23T16:27:33.953Z,17.15
2023-03-23T16:30:37.148Z,17.14
2023-03-23T16:33:40.473Z,17.12
2023-03-23T16:36:43.541Z,17.10
2023-03-23T16:39:46.613Z,17.09
2023-03-23T16:42:50.686Z,17.07
2023-03-23T16:45:56.167Z,17.06
2023-03-23T16:48:59.306Z,17.04
2023-03-23T16:52:02.567Z,17.02
2023-03-23T16:55:18.778Z,17.01
2023-03-23T16:58:21.847Z,16.99
2023-03-23T17:01:30.837Z,16.97
2023-03-23T17:04:47.090Z,16.95
2023-03-23T17:07:50.621Z,16.94
2023-03-23T17:10:56.945Z,16.91
2023-03-23T17:14:03.161Z,16.89
2023-03-23T17:17:10.261Z,16.87
2023-03-23T17:20:16.984Z,16.84
2023-03-23T17:23:21.631Z,16.82
2023-03-23T17:26:24.700Z,16.80
2023-03-23T17:29:28.693Z,16.78
2023-03-23T17:32:31.786Z,16.75
2023-03-23T17:35:36.061Z,16.73
2023-03-23T17:38:39.245Z,16.70
2023-03-23T17:41:42.268Z,16.68
2023-03-23T17:44:47.923Z,16.67
2023-03-23T17:47:53.555Z,16.64
2023-03-23T17:51:00.056Z,16.62
2023-03-23T17:54:03.455Z,16.61
2023-03-23T17:57:06.960Z,16.59
2023-03-23T18:00:10.294Z,16.58
2023-03-23T18:03:13.388Z,16.57
2023-03-23T18:06:16.534Z,16.56
2023-03-23T18:09:19.916Z,16.56
2023-03-23T18:12:23.025Z,16.54
2023-03-23T18:15:28.218Z,16.53
2023-03-23T18:18:32.362Z,16.52
2023-03-23T18:21:35.421Z,16.50
2023-03-23T18:24:38.606Z,16.49
2023-03-23T18:27:41.830Z,16.48
2023-03-23T18:30:49.187Z,16.47
2023-03-23T18:33:54.050Z,16.46
2023-03-23T18:36:57.067Z,16.45
2023-03-23T18:40:00.395Z,16.44
2023-03-23T18:43:03.630Z,16.42
2023-03-23T18:46:08.945Z,16.43
2023-03-23T18:49:12.088Z,16.42
2023-03-23T18:52:15.157Z,16.41
2023-03-23T18:55:20.096Z,16.40
2023-03-23T18:58:24.488Z,16.39
2023-03-23T19:01:27.616Z,16.38
2023-03-23T19:04:33.927Z,16.36
2023-03-23T19:07:38.288Z,16.36
2023-03-23T19:10:42.633Z,16.36
2023-03-23T19:13:58.130Z,16.36
2023-03-23T19:17:04.297Z,16.36
2023-03-23T19:20:14.541Z,16.35
2023-03-23T19:23:23.046Z,16.34
2023-03-23T19:26:31.136Z,16.35
2023-03-23T19:29:35.351Z,16.35
2023-03-23T19:32:38.360Z,16.35
2023-03-23T19:35:49.046Z,16.36
2023-03-23T19:38:54.373Z,16.35
2023-03-23T19:41:57.421Z,16.35
2023-03-23T19:45:01.546Z,16.36
2023-03-23T19:48:04.666Z,16.36
2023-03-23T19:51:08.034Z,16.36
2023-03-23T19:54:13.206Z,16.36
2023-03-23T19:57:16.740Z,16.36
2023-03-23T20:00:19.841Z,16.35
2023-03-23T20:03:23.181Z,16.34
2023-03-23T20:06:28.721Z,16.34
2023-03-23T20:09:33.094Z,16.34
2023-03-23T20:12:36.724Z,16.34
2023-03-23T20:15:39.746Z,16.33
2023-03-23T20:18:43.144Z,16.32
2023-03-23T20:21:46.275Z,16.31
2023-03-23T20:24:49.484Z,16.31
2023-03-23T20:27:55.057Z,16.29
2023-03-23T20:31:19.048Z,16.29
2023-03-23T20:34:31.680Z,16.28
2023-03-23T20:37:38.063Z,16.27
2023-03-23T20:40:40.981Z,16.27
2023-03-23T20:43:44.230Z,16.26
2023-03-23T20:46:48.410Z,16.25
2023-03-23T20:49:52.668Z,16.24
2023-03-23T20:52:56.889Z,16.22
2023-03-23T20:56:02.051Z,16.21
2023-03-23T20:59:05.764Z,16.19
2023-03-23T21:02:12.567Z,16.19
2023-03-23T21:05:15.604Z,16.18
2023-03-23T21:08:19.089Z,16.17
2023-03-23T21:11:24.694Z,16.17
2023-03-23T21:14:27.686Z,16.16
2023-03-23T21:17:30.783Z,16.16
2023-03-23T21:20:34.942Z,16.16
2023-03-23T21:23:38.943Z,16.15
2023-03-23T21:26:42.104Z,16.15
2023-03-23T21:29:45.028Z,16.15
2023-03-23T21:32:48.320Z,16.14
2023-03-23T21:35:51.253Z,16.14
2023-03-23T21:38:55.084Z,16.14
2023-03-23T21:41:59.585Z,16.14
2023-03-23T21:45:02.775Z,16.13
2023-03-23T21:48:06.443Z,16.14
2023-03-23T21:51:11.530Z,16.13
2023-03-23T21:54:14.940Z,16.13
2023-03-23T21:57:17.980Z,16.14
2023-03-23T22:00:21.070Z,16.14
2023-03-23T22:03:25.011Z,16.14
2023-03-23T22:06:28.583Z,16.14
2023-03-23T22:09:31.697Z,16.13
2023-03-23T22:12:35.645Z,16.14
2023-03-23T22:15:38.666Z,16.14
2023-03-23T22:18:43.454Z,16.14
2023-03-23T22:21:46.926Z,16.14
2023-03-23T22:24:50.039Z,16.13
2023-03-23T22:27:53.116Z,16.12
2023-03-23T22:31:00.459Z,16.11
2023-03-23T22:34:03.575Z,16.10
2023-03-23T22:37:06.631Z,16.09
2023-03-23T22:40:11.502Z,16.08
2023-03-23T22:43:14.528Z,16.07
2023-03-23T22:46:17.607Z,16.06
2023-03-23T22:49:20.807Z,16.05
2023-03-23T22:52:23.764Z,16.03
2023-03-23T22:55:27.174Z,16.02
2023-03-23T22:58:30.513Z,16.01
2023-03-23T23:01:34.185Z,15.99
2023-03-23T23:04:37.239Z,15.98
2023-03-23T23:07:40.625Z,15.96
2023-03-23T23:10:44.741Z,15.95
2023-03-23T23:13:48.326Z,15.93
2023-03-23T23:16:51.857Z,15.92
2023-03-23T23:19:55.005Z,15.91
2023-03-23T23:22:58.056Z,15.90
2023-03-23T23:26:01.502Z,15.90
2023-03-23T23:29:04.808Z,15.87
2023-03-23T23:32:08.284Z,15.86
2023-03-23T23:35:12.773Z,15.84
2023-03-23T23:38:16.697Z,15.82
2023-03-23T23:41:19.810Z,15.81
2023-03-23T23:44:22.877Z,15.80
2023-03-23T23:47:26.028Z,15.79
2023-03-23T23:50:29.375Z,15.77
2023-03-23T23:53:32.451Z,15.76
2023-03-23T23:56:36.195Z,15.74
2023-03-23T23:59:39.399Z,15.72
